Union, Missouri
Current Conditions -  °F | °C
As of 12:35 AM on Sunday 26 Oct 2014 (Local Time) from KFYG Reporting Station
Haze Haze  
Wind Chill: 54°   Ceiling: 3600
Heat Index: 54°   Visibility: 0.75mi
Dew Point: 54°   Wind: 0mph
Humidity: 100%   Direction: NA
Pressure: 30.01"   Gusts: NA
Location:  38.45°N, 91.01°W
Report Text: KFYG 260535Z AUTO 00000KT 3/4SM BR BKN036 12/12 A3001 RMK AO2
Loading
Personal Weather Stations






























Interactive Weather Map
Tropical Storm Tracking
New forecast layout! Learn more

10-Day Weather Forecast

Advertisements
Track Severe Weather on mobile